Time;durP1;ratioP1;P1;durP2;ratioP2;P2;SDS_P1;SDS_P2;PMS_P1;PMS_P2;Temp;Humidity;BMP_temperature;BMP_pressure;BME280_temperature;BME280_humidity;BME280_pressure;Samples;Min_cycle;Max_cycle;Signal;HPM_P1;HPM_P2
2021/03/17 00:02:11;;;;;;;14.68;4.97;;;3.00;89.20;;;;;;5031638;28;20025;-67
2021/03/17 00:04:37;;;;;;;18.80;7.15;;;3.00;89.30;;;;;;5031567;28;20022;-67
2021/03/17 00:07:04;;;;;;;16.38;7.28;;;3.10;88.90;;;;;;5031138;28;20013;-67
2021/03/17 00:09:29;;;;;;;13.68;5.38;;;3.10;88.60;;;;;;5031778;28;20037;-67
2021/03/17 00:11:55;;;;;;;14.20;5.75;;;3.10;88.70;;;;;;5031648;28;20033;-67
2021/03/17 00:14:21;;;;;;;10.68;4.40;;;3.20;88.90;;;;;;5031597;28;20403;-67
2021/03/17 00:16:46;;;;;;;12.73;5.25;;;3.20;88.80;;;;;;5020935;28;20381;-67
2021/03/17 00:19:12;;;;;;;10.52;4.95;;;3.30;88.60;;;;;;5031426;28;20037;-67
2021/03/17 00:21:37;;;;;;;14.23;5.32;;;3.40;88.70;;;;;;5031771;28;20025;-67
2021/03/17 00:24:04;;;;;;;14.00;4.93;;;3.40;88.30;;;;;;5031023;28;20483;-68
2021/03/17 00:26:29;;;;;;;10.65;5.43;;;3.40;88.00;;;;;;5030970;28;20441;-67
2021/03/17 00:28:55;;;;;;;18.42;6.65;;;3.40;88.10;;;;;;5031276;28;20026;-67
2021/03/17 00:31:20;;;;;;;13.68;6.95;;;3.40;87.80;;;;;;5031240;28;20026;-68
2021/03/17 00:33:46;;;;;;;14.45;6.63;;;3.50;87.60;;;;;;5031601;28;20116;-67
2021/03/17 00:36:11;;;;;;;14.05;5.43;;;3.60;87.30;;;;;;5029805;28;20035;-67
2021/03/17 00:38:37;;;;;;;17.00;5.03;;;3.60;86.70;;;;;;5031229;28;20041;-65
2021/03/17 00:41:02;;;;;;;10.52;4.43;;;3.60;86.10;;;;;;5029887;28;20032;-67
2021/03/17 00:43:28;;;;;;;9.65;4.32;;;3.50;86.40;;;;;;5031441;28;20030;-67
2021/03/17 00:45:53;;;;;;;13.90;4.97;;;3.60;86.50;;;;;;5031179;28;20026;-67
2021/03/17 00:48:19;;;;;;;10.68;4.50;;;3.50;86.40;;;;;;5034129;28;20026;-67
2021/03/17 00:50:44;;;;;;;10.35;4.38;;;3.60;86.30;;;;;;5034922;28;20059;-67
2021/03/17 00:53:10;;;;;;;10.00;4.90;;;3.50;86.40;;;;;;5033472;28;20021;-67
2021/03/17 00:55:35;;;;;;;9.98;4.25;;;3.50;86.70;;;;;;5034633;28;20051;-67
2021/03/17 00:58:01;;;;;;;8.15;4.72;;;3.50;86.80;;;;;;5034409;28;20038;-67
2021/03/17 01:00:26;;;;;;;8.75;4.07;;;3.60;87.10;;;;;;5033521;28;20026;-67
2021/03/17 01:02:52;;;;;;;9.48;4.07;;;3.50;87.00;;;;;;5034571;28;20505;-67
2021/03/17 01:05:17;;;;;;;13.38;4.63;;;3.60;87.20;;;;;;5034388;28;20026;-68
2021/03/17 01:07:43;;;;;;;9.60;5.18;;;3.60;86.80;;;;;;5034182;28;20097;-67
2021/03/17 01:10:19;;;;;;;14.30;5.10;;;3.70;86.20;;;;;;5033479;28;20049;-67
2021/03/17 01:12:45;;;;;;;14.02;5.57;;;3.70;86.20;;;;;;5032912;28;20029;-67
2021/03/17 01:15:12;;;;;;;11.25;5.70;;;3.70;85.50;;;;;;5033307;28;20036;-67
2021/03/17 01:17:39;;;;;;;11.73;5.88;;;3.70;85.60;;;;;;5057758;22;20052;-69
2021/03/17 01:20:05;;;;;;;8.82;5.28;;;3.70;85.20;;;;;;5039565;28;20033;-67
2021/03/17 01:22:30;;;;;;;14.20;5.43;;;3.70;85.30;;;;;;5050561;28;20077;-67
2021/03/17 01:24:58;;;;;;;16.02;8.18;;;3.70;85.50;;;;;;5050716;28;20033;-67
2021/03/17 01:27:24;;;;;;;11.98;5.72;;;3.60;85.60;;;;;;5034352;28;20029;-68
2021/03/17 01:29:49;;;;;;;13.30;6.75;;;3.70;85.20;;;;;;5034583;28;20502;-68
2021/03/17 01:32:15;;;;;;;13.57;6.68;;;3.50;85.20;;;;;;5034502;28;20033;-67
2021/03/17 01:34:41;;;;;;;13.68;7.32;;;3.40;85.60;;;;;;5035673;28;20044;-68
2021/03/17 01:37:06;;;;;;;20.98;9.95;;;3.30;85.80;;;;;;5037314;28;20040;-69
2021/03/17 01:39:32;;;;;;;21.33;10.07;;;3.30;86.00;;;;;;5035113;28;20029;-68
2021/03/17 01:42:00;;;;;;;16.13;7.60;;;3.40;85.80;;;;;;5035673;28;20026;-68
2021/03/17 01:44:25;;;;;;;22.45;11.65;;;3.30;85.20;;;;;;5032916;28;20111;-68
2021/03/17 01:46:51;;;;;;;16.75;7.97;;;3.20;85.60;;;;;;5032584;28;20099;-68
2021/03/17 01:49:17;;;;;;;16.80;9.18;;;3.10;85.70;;;;;;5034055;28;20033;-68
2021/03/17 01:51:42;;;;;;;28.80;12.50;;;3.00;86.00;;;;;;5034445;28;20048;-68
2021/03/17 01:54:08;;;;;;;22.65;10.75;;;2.90;86.70;;;;;;5034860;28;20038;-68
2021/03/17 01:56:34;;;;;;;22.58;10.52;;;3.00;86.90;;;;;;5036598;28;20395;-68
2021/03/17 01:59:00;;;;;;;18.15;9.68;;;3.00;86.80;;;;;;5035063;28;20025;-68
2021/03/17 02:01:26;;;;;;;17.88;9.13;;;3.00;86.80;;;;;;5035542;28;20519;-69
2021/03/17 02:03:52;;;;;;;14.43;8.68;;;3.00;86.50;;;;;;5035406;28;20376;-68
2021/03/17 02:06:18;;;;;;;21.42;10.68;;;3.00;86.70;;;;;;5035230;28;20025;-68
2021/03/17 02:08:44;;;;;;;17.35;9.23;;;3.10;86.90;;;;;;5034118;28;20083;-68
2021/03/17 02:11:11;;;;;;;18.33;9.30;;;3.10;86.60;;;;;;5032523;28;20026;-68
2021/03/17 02:14:10;;;;;;;22.63;10.50;;;3.10;86.70;;;;;;5033677;28;20040;-68
2021/03/17 02:16:38;;;;;;;21.20;11.13;;;3.10;86.70;;;;;;5023047;28;20487;-70
2021/03/17 02:19:12;;;;;;;19.27;9.15;;;3.10;86.70;;;;;;5037435;28;20048;-69
2021/03/17 02:22:18;;;;;;;25.42;11.38;;;3.10;86.20;;;;;;5040174;28;20025;-69
2021/03/17 02:24:48;;;;;;;22.55;10.45;;;3.10;86.40;;;;;;5037872;28;20053;-69
2021/03/17 02:27:41;;;;;;;26.98;10.63;;;3.00;86.40;;;;;;5033458;28;20072;-68
2021/03/17 02:30:42;;;;;;;19.63;9.60;;;3.00;86.60;;;;;;5032300;28;20120;-68
2021/03/17 02:33:19;;;;;;;21.88;9.75;;;3.10;86.80;;;;;;5003813;28;20067;-68
2021/03/17 02:35:52;;;;;;;20.27;9.98;;;3.10;86.50;;;;;;5031954;28;20112;-68
2021/03/17 02:38:18;;;;;;;17.83;9.77;;;3.20;86.70;;;;;;5032868;28;20029;-69
2021/03/17 02:40:44;;;;;;;24.15;11.57;;;3.20;86.30;;;;;;5033151;28;20213;-68
2021/03/17 02:43:28;;;;;;;20.98;10.73;;;3.20;85.90;;;;;;5031735;28;20026;-68
2021/03/17 02:45:56;;;;;;;21.25;9.10;;;3.30;85.80;;;;;;5033019;28;20035;-68
2021/03/17 02:48:42;;;;;;;23.35;11.18;;;3.20;85.70;;;;;;5032754;28;20032;-68
2021/03/17 02:51:19;;;;;;;18.90;8.73;;;3.30;86.10;;;;;;5004462;28;20057;-68
2021/03/17 02:53:46;;;;;;;23.73;10.95;;;3.30;85.60;;;;;;5031492;28;20128;-68
2021/03/17 02:56:13;;;;;;;24.58;10.90;;;3.30;85.80;;;;;;5032560;28;20031;-68
2021/03/17 02:58:47;;;;;;;23.20;10.38;;;3.40;86.20;;;;;;5031478;28;20057;-68
2021/03/17 03:01:15;;;;;;;16.38;9.50;;;3.50;85.70;;;;;;5031906;28;20027;-68
2021/03/17 03:03:41;;;;;;;24.23;10.77;;;3.50;85.00;;;;;;5032878;28;20084;-68
2021/03/17 03:06:09;;;;;;;16.60;9.98;;;3.40;85.40;;;;;;5031227;28;20072;-68
2021/03/17 03:08:37;;;;;;;23.50;9.95;;;3.40;85.40;;;;;;5032566;28;20423;-69
2021/03/17 03:11:06;;;;;;;22.45;10.77;;;3.40;85.60;;;;;;5031589;28;20036;-68
2021/03/17 03:13:32;;;;;;;20.77;10.07;;;3.40;85.20;;;;;;5032994;28;20024;-69
2021/03/17 03:15:59;;;;;;;25.75;10.05;;;3.40;85.20;;;;;;5032522;28;20112;-69
2021/03/17 03:18:27;;;;;;;20.30;10.35;;;3.30;85.20;;;;;;5032311;28;20021;-69
2021/03/17 03:20:57;;;;;;;20.73;9.25;;;3.30;85.40;;;;;;4999791;28;20022;-69
2021/03/17 03:23:26;;;;;;;19.42;9.05;;;3.50;85.40;;;;;;5030491;28;20087;-69
2021/03/17 03:25:52;;;;;;;19.58;10.27;;;3.40;84.70;;;;;;5032062;28;20048;-69
2021/03/17 03:28:20;;;;;;;23.50;10.13;;;3.40;85.10;;;;;;5031968;28;20104;-69
2021/03/17 03:30:50;;;;;;;20.92;10.05;;;3.40;84.80;;;;;;5032065;28;20545;-69
2021/03/17 03:33:18;;;;;;;17.45;8.70;;;3.30;84.90;;;;;;5030743;28;20079;-68
2021/03/17 03:35:44;;;;;;;22.75;10.40;;;3.30;85.10;;;;;;5032056;28;20036;-68
2021/03/17 03:38:11;;;;;;;21.02;10.85;;;3.40;85.30;;;;;;5031802;28;20029;-68
2021/03/17 03:40:38;;;;;;;20.55;10.07;;;3.40;85.00;;;;;;5031806;28;20032;-68
2021/03/17 03:43:05;;;;;;;24.60;10.55;;;3.30;84.70;;;;;;5031917;28;20464;-68
2021/03/17 03:45:31;;;;;;;19.30;9.38;;;3.40;84.80;;;;;;5014569;28;20032;-68
2021/03/17 03:47:57;;;;;;;23.42;12.13;;;3.40;84.80;;;;;;5030490;28;20041;-69
2021/03/17 03:50:24;;;;;;;23.98;10.27;;;3.30;85.00;;;;;;5032198;28;20017;-69
2021/03/17 03:53:32;;;;;;;22.80;10.18;;;3.30;84.90;;;;;;5032375;28;20375;-69
2021/03/17 03:56:23;;;;;;;17.45;9.23;;;3.30;84.80;;;;;;5023338;28;20068;-68
2021/03/17 03:58:51;;;;;;;20.17;9.98;;;3.30;85.00;;;;;;5031789;28;20029;-68
2021/03/17 04:01:30;;;;;;;23.27;10.45;;;3.30;84.80;;;;;;5031784;28;20060;-69
2021/03/17 04:04:08;;;;;;;21.25;9.82;;;3.40;85.00;;;;;;5032192;28;20467;-69
2021/03/17 04:06:34;;;;;;;21.35;9.88;;;3.30;84.60;;;;;;5030010;28;20422;-69
2021/03/17 04:09:02;;;;;;;14.70;8.23;;;3.40;84.80;;;;;;5031645;28;20029;-68
2021/03/17 04:11:28;;;;;;;24.25;9.18;;;3.40;84.30;;;;;;5031472;28;20033;-69
2021/03/17 04:13:57;;;;;;;17.48;8.73;;;3.40;84.60;;;;;;5031672;28;20033;-69
2021/03/17 04:16:27;;;;;;;19.27;9.30;;;3.30;84.50;;;;;;5024092;28;20026;-69
2021/03/17 04:18:55;;;;;;;18.60;10.25;;;3.30;84.30;;;;;;5031387;28;20490;-69
2021/03/17 04:21:25;;;;;;;39.47;23.92;;;3.40;84.30;;;;;;5031194;28;20018;-69
2021/03/17 04:23:53;;;;;;;16.52;9.45;;;3.30;83.60;;;;;;5029446;28;20176;-69
2021/03/17 04:26:21;;;;;;;15.52;6.97;;;3.30;83.70;;;;;;5030984;28;20024;-69
2021/03/17 04:28:48;;;;;;;16.42;7.72;;;3.30;83.60;;;;;;5030083;28;20430;-69
2021/03/17 04:31:16;;;;;;;20.45;7.65;;;3.30;83.60;;;;;;5031437;28;20084;-68
2021/03/17 04:33:43;;;;;;;192.60;101.53;;;3.40;83.80;;;;;;5030072;28;20487;-69
2021/03/17 04:36:11;;;;;;;144.70;90.85;;;3.30;83.20;;;;;;5031073;28;20036;-68
2021/03/17 04:38:37;;;;;;;19.42;8.88;;;3.30;83.60;;;;;;5031044;28;20034;-68
2021/03/17 04:41:04;;;;;;;21.30;9.00;;;3.20;83.70;;;;;;5031358;28;20033;-68
2021/03/17 04:43:32;;;;;;;13.55;7.20;;;3.20;84.00;;;;;;5031322;28;20025;-68
2021/03/17 04:46:02;;;;;;;19.77;8.90;;;3.20;83.80;;;;;;5029832;28;20048;-68
2021/03/17 04:48:28;;;;;;;19.13;7.97;;;3.30;83.90;;;;;;5030048;28;20061;-68
2021/03/17 04:50:54;;;;;;;15.10;7.40;;;3.20;83.40;;;;;;4999101;28;20029;-68
2021/03/17 04:53:23;;;;;;;16.67;8.20;;;3.10;84.00;;;;;;5029908;28;20064;-68
2021/03/17 04:55:48;;;;;;;18.48;7.97;;;3.10;84.50;;;;;;5031136;28;20022;-69
2021/03/17 04:58:22;;;;;;;12.73;6.93;;;3.10;83.90;;;;;;5030968;28;20400;-68
2021/03/17 05:00:49;;;;;;;19.45;9.20;;;3.10;83.90;;;;;;5031182;28;20048;-68
2021/03/17 05:03:20;;;;;;;15.68;8.60;;;3.20;84.50;;;;;;5031158;28;20030;-68
2021/03/17 05:05:49;;;;;;;21.10;9.15;;;3.20;83.60;;;;;;5031078;28;20025;-68
2021/03/17 05:08:17;;;;;;;17.15;8.45;;;3.20;83.80;;;;;;5030881;28;20416;-68
2021/03/17 05:10:46;;;;;;;19.52;8.77;;;3.10;83.80;;;;;;5031100;28;20028;-68
2021/03/17 05:13:14;;;;;;;18.33;8.02;;;3.10;83.90;;;;;;5031127;28;20026;-68
2021/03/17 05:15:40;;;;;;;15.10;8.70;;;3.10;83.50;;;;;;5031045;28;20029;-69
2021/03/17 05:18:13;;;;;;;18.42;9.13;;;3.10;83.80;;;;;;5030769;28;20044;-68
2021/03/17 05:20:41;;;;;;;19.85;8.88;;;3.20;83.40;;;;;;5029885;28;20028;-68
2021/03/17 05:23:07;;;;;;;19.85;9.23;;;3.10;83.80;;;;;;5030761;28;20100;-68
2021/03/17 05:25:33;;;;;;;22.33;9.35;;;3.20;83.50;;;;;;5030807;28;20169;-68
2021/03/17 05:28:05;;;;;;;24.30;9.90;;;3.10;83.10;;;;;;5030174;28;20029;-68
2021/03/17 05:30:32;;;;;;;28.45;10.80;;;3.10;83.40;;;;;;5030723;28;20033;-69
2021/03/17 05:33:00;;;;;;;19.52;9.25;;;3.10;83.30;;;;;;5030773;28;20361;-68
2021/03/17 05:35:28;;;;;;;26.75;10.45;;;3.10;83.00;;;;;;5033280;28;20384;-69
2021/03/17 05:37:54;;;;;;;20.63;9.30;;;3.00;83.40;;;;;;5034121;28;20308;-68
2021/03/17 05:40:21;;;;;;;17.55;9.80;;;3.00;82.80;;;;;;5034110;28;20065;-69
2021/03/17 05:42:46;;;;;;;18.75;9.45;;;3.00;83.10;;;;;;5033084;28;20037;-69
2021/03/17 05:45:20;;;;;;;29.63;11.90;;;3.00;83.50;;;;;;5034165;28;20022;-69
2021/03/17 05:47:48;;;;;;;19.77;9.48;;;3.00;83.30;;;;;;5032570;28;20075;-69
2021/03/17 05:50:16;;;;;;;25.00;12.13;;;3.00;83.00;;;;;;5033890;28;20025;-69
2021/03/17 05:52:42;;;;;;;20.67;9.75;;;2.90;83.40;;;;;;5033045;28;20079;-68
2021/03/17 05:55:10;;;;;;;16.42;10.40;;;2.90;83.40;;;;;;5034172;28;20112;-68
2021/03/17 05:57:38;;;;;;;19.15;11.00;;;2.90;83.10;;;;;;5033508;28;20060;-68
2021/03/17 06:00:07;;;;;;;23.70;11.90;;;2.90;83.70;;;;;;5033958;28;20035;-69
2021/03/17 06:02:34;;;;;;;20.33;11.30;;;2.90;83.70;;;;;;5032863;28;20360;-68
2021/03/17 06:05:00;;;;;;;20.00;10.35;;;3.00;83.70;;;;;;5034439;28;20044;-68
2021/03/17 06:07:32;;;;;;;27.95;13.63;;;3.00;83.30;;;;;;5032586;28;20017;-68
2021/03/17 06:10:02;;;;;;;22.33;10.63;;;3.00;83.30;;;;;;5033944;28;20506;-70
2021/03/17 06:12:29;;;;;;;22.48;9.60;;;3.00;83.10;;;;;;5033600;28;20084;-70
2021/03/17 06:14:56;;;;;;;20.40;9.25;;;2.90;83.00;;;;;;4998547;28;20040;-69
2021/03/17 06:17:24;;;;;;;22.13;10.63;;;2.90;82.90;;;;;;5006027;28;20061;-68
2021/03/17 06:20:00;;;;;;;26.08;10.93;;;3.00;83.40;;;;;;5003489;28;20038;-69
2021/03/17 06:22:27;;;;;;;20.08;9.80;;;3.10;83.10;;;;;;5006506;28;20580;-68
2021/03/17 06:24:53;;;;;;;19.40;10.02;;;3.10;82.70;;;;;;5005031;28;20064;-69
2021/03/17 06:27:20;;;;;;;22.00;9.70;;;3.20;82.20;;;;;;5003075;28;20026;-68
2021/03/17 06:29:46;;;;;;;18.30;9.05;;;3.20;82.70;;;;;;5005962;28;20014;-68
2021/03/17 06:32:12;;;;;;;15.57;8.38;;;3.10;81.90;;;;;;5005658;28;20475;-67
2021/03/17 06:34:50;;;;;;;23.23;9.52;;;3.10;82.10;;;;;;5006267;28;20337;-69
2021/03/17 06:37:16;;;;;;;19.92;8.43;;;3.10;82.50;;;;;;5016840;28;20029;-69
2021/03/17 06:39:44;;;;;;;25.13;9.82;;;3.10;82.00;;;;;;5032864;28;20506;-67
2021/03/17 06:42:11;;;;;;;22.52;10.80;;;3.10;82.50;;;;;;5033306;28;20021;-70
2021/03/17 06:44:40;;;;;;;16.77;9.20;;;3.10;82.70;;;;;;5024441;28;20416;-68
2021/03/17 06:47:19;;;;;;;21.63;9.73;;;3.00;82.10;;;;;;5032430;28;20037;-70
2021/03/17 06:49:54;;;;;;;15.88;9.77;;;3.10;82.60;;;;;;5032846;28;20029;-69
2021/03/17 06:52:33;;;;;;;19.88;8.80;;;3.10;82.70;;;;;;5032716;28;20030;-68
2021/03/17 06:55:31;;;;;;;23.10;10.10;;;3.20;82.30;;;;;;5002015;28;20096;-70
2021/03/17 06:57:59;;;;;;;22.05;10.52;;;3.10;83.20;;;;;;5027468;28;20042;-69
2021/03/17 07:00:35;;;;;;;21.52;9.45;;;3.20;83.30;;;;;;5042277;28;20048;-73
2021/03/17 07:03:07;;;;;;;26.38;11.77;;;3.20;83.70;;;;;;5008637;28;20028;-70
2021/03/17 07:05:43;;;;;;;17.08;8.20;;;3.30;83.50;;;;;;5033343;28;20021;-69
2021/03/17 07:08:14;;;;;;;16.30;7.35;;;3.30;82.60;;;;;;5033068;28;20564;-69
2021/03/17 07:10:41;;;;;;;18.20;8.82;;;3.30;82.50;;;;;;5031518;28;20032;-71
2021/03/17 07:13:08;;;;;;;18.63;10.23;;;3.30;83.00;;;;;;5031580;28;20026;-70
2021/03/17 07:15:35;;;;;;;13.48;7.82;;;3.30;82.70;;;;;;5032563;28;20021;-70
2021/03/17 07:18:19;;;;;;;19.55;8.77;;;3.30;82.80;;;;;;5068515;22;20048;-69
2021/03/17 07:20:54;;;;;;;17.38;8.15;;;3.30;82.70;;;;;;5027634;28;20087;-69
2021/03/17 07:23:21;;;;;;;14.00;8.43;;;3.30;82.90;;;;;;4999674;28;20041;-69
2021/03/17 07:26:19;;;;;;;18.27;8.98;;;3.30;83.00;;;;;;5022869;28;20052;-70
2021/03/17 07:28:47;;;;;;;17.45;8.57;;;3.40;82.30;;;;;;5028569;28;20082;-70
2021/03/17 07:31:14;;;;;;;19.25;8.75;;;3.60;82.20;;;;;;5000126;28;20087;-70
2021/03/17 07:33:40;;;;;;;15.13;7.00;;;3.70;81.60;;;;;;5004583;28;20042;-70
2021/03/17 07:36:06;;;;;;;16.67;9.23;;;3.70;81.20;;;;;;5025161;28;20029;-69
2021/03/17 07:38:32;;;;;;;18.73;8.32;;;3.70;82.20;;;;;;5014559;28;20030;-70
2021/03/17 07:40:58;;;;;;;20.05;8.73;;;3.70;82.10;;;;;;5009628;28;20428;-70
2021/03/17 07:43:26;;;;;;;15.02;8.05;;;3.70;82.10;;;;;;5019268;28;20557;-70
2021/03/17 07:45:53;;;;;;;19.55;8.27;;;3.60;81.60;;;;;;5002912;28;20025;-71
2021/03/17 07:48:20;;;;;;;17.83;8.07;;;3.70;81.80;;;;;;5028981;28;20018;-67
2021/03/17 07:50:47;;;;;;;14.48;7.38;;;3.80;81.50;;;;;;4997493;28;20033;-67
2021/03/17 07:53:24;;;;;;;17.48;7.97;;;3.80;80.80;;;;;;5025629;28;20022;-67
2021/03/17 07:55:54;;;;;;;19.92;8.38;;;3.70;80.90;;;;;;5015495;28;20018;-70
2021/03/17 07:58:20;;;;;;;17.53;6.47;;;3.80;80.80;;;;;;4993191;28;20437;-69
2021/03/17 08:00:46;;;;;;;18.17;8.60;;;3.70;81.30;;;;;;5019887;28;20080;-69
2021/03/17 08:03:14;;;;;;;107.68;38.40;;;3.60;81.20;;;;;;5025962;28;20021;-70
2021/03/17 08:05:42;;;;;;;58.63;23.40;;;3.50;81.80;;;;;;5004772;28;20022;-71
2021/03/17 08:08:09;;;;;;;26.15;12.15;;;3.50;82.70;;;;;;5025467;28;20491;-68
2021/03/17 08:10:40;;;;;;;29.20;11.07;;;3.40;82.10;;;;;;4996797;28;20045;-71
2021/03/17 08:13:07;;;;;;;23.15;11.10;;;3.30;82.60;;;;;;5019239;28;20380;-70
2021/03/17 08:15:33;;;;;;;29.63;10.05;;;3.30;82.90;;;;;;4994072;28;20120;-71
2021/03/17 08:17:58;;;;;;;35.08;14.98;;;3.30;83.00;;;;;;5008084;28;20060;-71
2021/03/17 08:20:29;;;;;;;24.27;11.18;;;3.30;83.60;;;;;;5013791;28;20030;-68
2021/03/17 08:22:57;;;;;;;26.97;11.93;;;3.40;82.80;;;;;;5003438;28;20388;-69
2021/03/17 08:25:45;;;;;;;27.33;11.00;;;3.40;83.40;;;;;;5023532;28;20018;-69
2021/03/17 08:28:27;;;;;;;22.58;9.93;;;3.40;83.30;;;;;;5009402;28;20073;-71
2021/03/17 08:30:54;;;;;;;20.90;11.15;;;3.50;83.50;;;;;;5009550;28;20044;-69
2021/03/17 08:33:30;;;;;;;30.88;12.35;;;3.50;83.10;;;;;;5006338;28;20037;-69
2021/03/17 08:36:01;;;;;;;17.63;9.85;;;3.70;83.20;;;;;;5020660;28;20021;-71
2021/03/17 08:38:50;;;;;;;23.13;9.95;;;3.80;82.30;;;;;;5009693;28;20030;-70
2021/03/17 08:41:35;;;;;;;28.98;11.02;;;3.90;82.40;;;;;;5004873;28;20044;-69
2021/03/17 08:44:39;;;;;;;26.63;11.48;;;3.80;81.40;;;;;;5000886;28;20026;-70
2021/03/17 08:47:16;;;;;;;21.40;9.85;;;3.90;82.00;;;;;;4961487;28;20033;-70
2021/03/17 08:49:43;;;;;;;30.75;12.57;;;4.00;82.30;;;;;;5021392;28;20033;-71
2021/03/17 08:52:20;;;;;;;20.70;10.20;;;4.10;82.80;;;;;;5025355;28;20052;-71
2021/03/17 08:54:51;;;;;;;20.50;10.30;;;4.00;82.70;;;;;;5014935;28;20068;-70
2021/03/17 08:57:17;;;;;;;25.95;11.32;;;3.90;83.40;;;;;;5024083;28;20021;-70
2021/03/17 09:00:00;;;;;;;21.35;10.30;;;3.80;83.30;;;;;;5003901;28;20021;-71
2021/03/17 09:02:25;;;;;;;23.30;10.52;;;3.80;83.60;;;;;;4997030;28;20041;-70
2021/03/17 09:04:51;;;;;;;25.70;12.52;;;3.90;83.70;;;;;;5027408;28;20400;-70
2021/03/17 09:07:22;;;;;;;27.58;11.10;;;4.00;83.50;;;;;;4995612;28;20084;-70
2021/03/17 09:09:53;;;;;;;22.67;11.25;;;4.00;82.70;;;;;;5019988;28;20026;-70
2021/03/17 09:12:27;;;;;;;29.65;14.38;;;4.00;83.40;;;;;;5019535;28;20030;-69
2021/03/17 09:15:14;;;;;;;21.15;10.85;;;4.30;83.50;;;;;;5006945;28;20385;-70
2021/03/17 09:17:59;;;;;;;31.70;13.55;;;4.40;82.40;;;;;;5005903;28;20124;-70
2021/03/17 09:20:34;;;;;;;21.98;11.00;;;4.50;81.60;;;;;;5029779;28;20036;-69
2021/03/17 09:23:12;;;;;;;25.30;11.15;;;4.40;81.20;;;;;;5008466;28;20030;-68
2021/03/17 09:25:44;;;;;;;24.25;11.25;;;4.40;81.60;;;;;;5014055;28;20120;-68
2021/03/17 09:28:27;;;;;;;22.08;12.25;;;4.50;81.10;;;;;;4991563;28;20022;-68
2021/03/17 09:30:59;;;;;;;24.98;11.15;;;4.60;81.20;;;;;;4979375;28;20026;-70
2021/03/17 09:33:42;;;;;;;33.15;11.45;;;4.60;80.80;;;;;;4992995;28;20057;-71
2021/03/17 09:36:11;;;;;;;24.42;11.73;;;4.60;80.00;;;;;;5020091;28;20491;-72
2021/03/17 09:38:57;;;;;;;27.48;11.65;;;4.60;80.00;;;;;;5006522;28;20074;-70
2021/03/17 09:41:28;;;;;;;140.07;61.92;;;4.60;80.30;;;;;;4995748;28;20052;-71
2021/03/17 09:44:05;;;;;;;80.22;31.73;;;4.80;79.50;;;;;;4996762;28;20113;-71
2021/03/17 09:46:43;;;;;;;50.33;20.35;;;4.70;78.50;;;;;;5014713;28;20461;-69
2021/03/17 09:49:14;;;;;;;111.43;42.38;;;4.80;78.60;;;;;;5027563;28;20030;-69
2021/03/17 09:51:47;;;;;;;19.43;10.07;;;5.00;79.90;;;;;;5005824;28;20026;-70
2021/03/17 09:54:16;;;;;;;30.50;12.93;;;4.90;77.20;;;;;;5018736;28;20037;-70
2021/03/17 09:56:46;;;;;;;31.45;12.23;;;4.90;77.50;;;;;;5000247;28;20096;-70
2021/03/17 09:59:19;;;;;;;27.77;12.15;;;5.00;78.30;;;;;;5019046;28;20030;-69
2021/03/17 10:02:20;;;;;;;23.95;10.93;;;5.10;76.50;;;;;;5008950;28;20018;-69
2021/03/17 10:04:57;;;;;;;23.23;10.30;;;5.20;76.70;;;;;;5029031;28;20073;-69
2021/03/17 10:07:25;;;;;;;31.83;12.07;;;5.10;76.90;;;;;;5020515;28;20515;-69
2021/03/17 10:09:52;;;;;;;31.67;13.40;;;5.30;76.90;;;;;;5021545;28;20036;-71
2021/03/17 10:12:21;;;;;;;25.45;10.05;;;5.60;76.30;;;;;;5013862;28;20172;-70
2021/03/17 10:14:48;;;;;;;19.13;9.25;;;5.60;75.30;;;;;;5029403;28;20018;-70
2021/03/17 10:17:16;;;;;;;30.45;13.15;;;5.60;75.30;;;;;;5025342;28;20671;-70
2021/03/17 10:19:46;;;;;;;21.23;9.95;;;5.50;75.90;;;;;;5022166;28;20030;-70
2021/03/17 10:22:15;;;;;;;26.33;12.68;;;5.40;75.40;;;;;;5014594;28;20015;-70
2021/03/17 10:24:44;;;;;;;23.75;10.07;;;5.20;75.70;;;;;;5014762;28;20384;-70
2021/03/17 10:27:12;;;;;;;20.35;10.52;;;5.10;75.90;;;;;;5026855;28;20084;-70
2021/03/17 10:29:40;;;;;;;24.35;10.45;;;5.10;76.90;;;;;;5004919;28;20734;-70
2021/03/17 10:32:09;;;;;;;25.30;11.05;;;5.20;76.50;;;;;;5013218;28;20087;-71
2021/03/17 10:34:36;;;;;;;20.63;11.10;;;5.20;76.00;;;;;;5011356;28;20037;-70
2021/03/17 10:37:02;;;;;;;25.25;11.85;;;5.20;76.00;;;;;;5027632;28;20070;-70
2021/03/17 10:39:32;;;;;;;64.75;33.17;;;5.10;76.10;;;;;;5020879;28;20506;-71
2021/03/17 10:42:00;;;;;;;15.82;9.25;;;5.10;76.90;;;;;;5002946;28;20482;-69
2021/03/17 10:44:28;;;;;;;32.17;16.48;;;5.20;75.80;;;;;;5011348;28;20105;-71
2021/03/17 10:46:55;;;;;;;26.95;14.30;;;5.10;76.10;;;;;;5000139;28;20052;-70
2021/03/17 10:49:20;;;;;;;33.92;16.13;;;5.00;76.30;;;;;;5031166;28;20075;-70
2021/03/17 10:51:54;;;;;;;38.05;17.75;;;5.00;77.00;;;;;;5022137;28;20041;-70
2021/03/17 10:54:30;;;;;;;29.35;13.75;;;5.20;77.30;;;;;;5005211;28;20021;-70
2021/03/17 10:56:57;;;;;;;35.45;17.75;;;5.50;75.70;;;;;;4998605;28;20021;-69
2021/03/17 10:59:28;;;;;;;45.03;20.75;;;5.60;75.60;;;;;;5025036;28;20033;-71
2021/03/17 11:02:34;;;;;;;28.23;14.73;;;6.00;73.80;;;;;;5016794;28;20025;-71
2021/03/17 11:05:12;;;;;;;25.25;11.80;;;6.50;73.10;;;;;;5001286;28;20034;-71
2021/03/17 11:08:06;;;;;;;20.77;9.90;;;6.90;70.90;;;;;;5022562;28;20487;-70
2021/03/17 11:10:34;;;;;;;32.60;16.48;;;7.00;69.70;;;;;;5028853;28;20116;-70
2021/03/17 11:13:08;;;;;;;18.67;9.73;;;6.70;71.20;;;;;;4999094;28;20026;-69
2021/03/17 11:15:35;;;;;;;22.55;12.20;;;6.50;71.20;;;;;;5005127;28;20034;-69
2021/03/17 11:18:00;;;;;;;29.45;16.73;;;6.50;71.80;;;;;;5006555;28;20065;-70
2021/03/17 11:20:27;;;;;;;19.30;11.07;;;6.30;72.20;;;;;;5016723;28;20139;-70
2021/03/17 11:22:53;;;;;;;25.95;11.90;;;6.20;71.50;;;;;;4999425;28;20037;-70
2021/03/17 11:25:26;;;;;;;17.33;10.35;;;6.10;72.90;;;;;;5024935;28;20022;-70
2021/03/17 11:27:53;;;;;;;40.25;18.67;;;6.00;72.70;;;;;;5016473;28;20048;-70
2021/03/17 11:30:22;;;;;;;28.23;12.48;;;6.00;73.40;;;;;;5025098;28;20076;-69
2021/03/17 11:32:48;;;;;;;26.55;10.15;;;5.90;72.30;;;;;;5014773;28;20132;-70
2021/03/17 11:35:13;;;;;;;27.30;11.85;;;5.80;72.60;;;;;;5021772;28;20440;-70
2021/03/17 11:37:40;;;;;;;28.73;14.32;;;5.60;74.00;;;;;;5021531;28;20053;-69
2021/03/17 11:40:07;;;;;;;20.42;11.90;;;5.50;75.40;;;;;;5016667;28;20041;-70
2021/03/17 11:42:35;;;;;;;27.25;14.93;;;5.30;76.70;;;;;;5028042;28;20029;-69
2021/03/17 11:45:04;;;;;;;19.95;9.98;;;5.30;78.30;;;;;;5005927;28;20025;-69
2021/03/17 11:47:30;;;;;;;15.18;9.27;;;5.40;78.40;;;;;;5014287;28;20539;-69
2021/03/17 11:49:55;;;;;;;22.27;11.82;;;5.50;77.60;;;;;;5029824;28;20096;-69
2021/03/17 11:52:21;;;;;;;25.45;12.32;;;5.50;78.70;;;;;;5015869;28;20030;-69
2021/03/17 11:54:46;;;;;;;20.35;12.20;;;5.60;78.80;;;;;;5011622;28;20034;-69
2021/03/17 11:57:12;;;;;;;24.83;12.70;;;5.50;78.60;;;;;;4985123;28;20407;-68
2021/03/17 11:59:37;;;;;;;27.25;13.30;;;5.40;78.70;;;;;;5007285;28;20072;-70
2021/03/17 12:02:04;;;;;;;24.15;13.30;;;5.30;80.00;;;;;;5017905;28;20487;-70
2021/03/17 12:04:29;;;;;;;25.08;12.05;;;5.20;80.10;;;;;;5010888;28;20024;-70
2021/03/17 12:06:55;;;;;;;31.88;15.90;;;5.00;79.50;;;;;;4997501;28;20018;-70
2021/03/17 12:09:23;;;;;;;27.17;13.80;;;5.00;81.40;;;;;;5006602;28;20446;-70
2021/03/17 12:11:48;;;;;;;49.15;24.05;;;5.00;80.90;;;;;;5004223;28;20029;-72
2021/03/17 12:14:14;;;;;;;32.35;16.83;;;4.70;81.70;;;;;;5015241;28;20036;-72
2021/03/17 12:16:42;;;;;;;33.38;16.55;;;4.60;82.20;;;;;;5012254;28;20036;-71
2021/03/17 12:19:07;;;;;;;33.75;16.83;;;4.40;83.20;;;;;;5025735;28;20087;-70
2021/03/17 12:21:33;;;;;;;40.03;21.02;;;4.30;83.60;;;;;;5020220;28;20018;-71
2021/03/17 12:23:58;;;;;;;38.95;17.23;;;4.20;83.90;;;;;;5012714;28;20488;-71
2021/03/17 12:26:24;;;;;;;21.52;13.73;;;4.30;84.60;;;;;;5012334;28;20143;-71
2021/03/17 12:28:49;;;;;;;30.83;17.40;;;4.30;84.60;;;;;;4987554;28;20018;-70
2021/03/17 12:31:16;;;;;;;24.88;13.48;;;4.30;84.30;;;;;;5024809;28;20097;-71
2021/03/17 12:33:42;;;;;;;32.70;15.65;;;4.30;84.90;;;;;;4987987;28;20040;-71
2021/03/17 12:36:07;;;;;;;36.60;16.52;;;4.20;85.80;;;;;;5017252;28;20030;-69
2021/03/17 12:38:33;;;;;;;29.92;16.67;;;4.20;85.80;;;;;;4993980;28;20492;-71
2021/03/17 12:40:58;;;;;;;40.70;20.83;;;4.10;86.00;;;;;;5024140;28;20435;-70
2021/03/17 12:43:24;;;;;;;26.98;14.75;;;4.10;86.40;;;;;;5005703;28;20397;-69
2021/03/17 12:45:51;;;;;;;41.00;19.98;;;4.00;85.50;;;;;;5022855;28;20475;-70
2021/03/17 12:48:17;;;;;;;33.58;17.75;;;4.00;86.30;;;;;;5002736;28;20030;-69
2021/03/17 12:50:42;;;;;;;37.65;20.70;;;4.10;86.50;;;;;;5030449;28;20513;-69
2021/03/17 12:53:08;;;;;;;42.35;21.10;;;4.20;86.30;;;;;;5003161;28;20029;-69
2021/03/17 12:55:34;;;;;;;39.17;20.02;;;4.10;86.30;;;;;;5008305;28;20442;-68